createdAt,value
2019-04-14T00:01:41.554Z,2.60
2019-04-14T00:04:18.239Z,2.60
2019-04-14T00:06:48.525Z,2.50
2019-04-14T00:09:20.673Z,2.50
2019-04-14T00:11:50.725Z,2.50
2019-04-14T00:14:20.867Z,2.50
2019-04-14T00:16:51.056Z,2.60
2019-04-14T00:19:21.730Z,2.50
2019-04-14T00:21:52.223Z,2.60
2019-04-14T00:24:22.790Z,2.60
2019-04-14T00:26:53.127Z,2.80
2019-04-14T00:29:23.890Z,2.60
2019-04-14T00:31:55.371Z,2.60
2019-04-14T00:34:44.200Z,2.60
2019-04-14T00:37:27.992Z,2.70
2019-04-14T00:40:02.071Z,2.60
2019-04-14T00:42:58.088Z,2.70
2019-04-14T00:45:43.400Z,2.70
2019-04-14T00:48:15.872Z,2.70
2019-04-14T00:50:43.844Z,2.70
2019-04-14T00:53:14.265Z,2.60
2019-04-14T00:55:44.397Z,2.40
2019-04-14T00:58:14.866Z,2.50
2019-04-14T01:00:45.212Z,2.50
2019-04-14T01:03:15.548Z,2.50
2019-04-14T01:05:45.890Z,2.40
2019-04-14T01:08:16.318Z,2.40
2019-04-14T01:10:47.551Z,2.50
2019-04-14T01:13:17.867Z,2.40
2019-04-14T01:15:57.583Z,2.20
2019-04-14T01:18:19.495Z,2.10
2019-04-14T01:20:49.476Z,2.00
2019-04-14T01:23:19.747Z,1.90
2019-04-14T01:25:49.977Z,1.90
2019-04-14T01:28:20.140Z,1.70
2019-04-14T01:30:50.159Z,1.70
2019-04-14T01:33:20.588Z,1.60
2019-04-14T01:35:50.996Z,1.70
2019-04-14T01:38:21.248Z,1.60
2019-04-14T01:40:51.283Z,1.50
2019-04-14T01:43:21.381Z,1.60
2019-04-14T01:46:04.235Z,1.60
2019-04-14T01:48:23.616Z,1.60
2019-04-14T01:51:13.526Z,1.70
2019-04-14T01:53:57.458Z,1.70
2019-04-14T01:56:51.325Z,1.80
2019-04-14T01:59:21.950Z,1.60
2019-04-14T02:01:52.962Z,1.50
2019-04-14T02:04:22.931Z,1.70
2019-04-14T02:06:53.007Z,1.60
2019-04-14T02:09:22.998Z,1.90
2019-04-14T02:11:53.138Z,1.80
2019-04-14T02:14:23.386Z,1.60
2019-04-14T02:16:57.387Z,1.60
2019-04-14T02:19:26.255Z,1.60
2019-04-14T02:21:56.566Z,1.40
2019-04-14T02:24:26.412Z,1.40
2019-04-14T02:26:56.966Z,1.50
2019-04-14T02:29:27.610Z,1.40
2019-04-14T02:32:25.545Z,1.30
2019-04-14T02:34:57.303Z,1.20
2019-04-14T02:37:43.335Z,1.30
2019-04-14T02:42:36.503Z,1.40
2019-04-14T02:44:59.995Z,1.40
2019-04-14T02:50:08.384Z,1.30
2019-04-14T02:52:35.745Z,1.20
2019-04-14T02:55:04.336Z,1.30
2019-04-14T02:57:38.253Z,1.50
2019-04-14T03:00:09.151Z,1.50
2019-04-14T03:05:09.442Z,1.40
2019-04-14T03:07:58.152Z,1.40
2019-04-14T03:10:28.059Z,1.20
2019-04-14T03:12:57.851Z,1.10
2019-04-14T03:15:28.001Z,0.90
2019-04-14T03:18:33.853Z,1.00
2019-04-14T03:21:21.328Z,1.30
2019-04-14T03:24:05.059Z,1.30
2019-04-14T03:26:45.093Z,1.30
2019-04-14T03:29:21.595Z,1.40
2019-04-14T03:34:34.263Z,1.30
2019-04-14T03:39:31.934Z,0.90
2019-04-14T03:42:00.942Z,1.00
2019-04-14T03:44:37.236Z,1.20
2019-04-14T03:47:08.696Z,1.20
2019-04-14T03:49:40.546Z,1.20
2019-04-14T03:52:02.497Z,1.10
2019-04-14T03:54:36.637Z,1.10
2019-04-14T03:56:53.355Z,1.00
2019-04-14T03:59:24.083Z,1.00
2019-04-14T04:01:54.697Z,1.00
2019-04-14T04:04:27.339Z,1.00
2019-04-14T04:06:57.576Z,1.00
2019-04-14T04:09:34.394Z,0.90
2019-04-14T04:12:05.293Z,1.00
2019-04-14T04:14:35.818Z,0.80
2019-04-14T04:17:43.220Z,0.70
2019-04-14T04:20:28.618Z,0.70
2019-04-14T04:23:10.061Z,0.70
2019-04-14T04:25:44.605Z,0.60
2019-04-14T04:28:42.858Z,0.60
2019-04-14T04:31:43.994Z,0.70
2019-04-14T04:34:33.993Z,0.60
2019-04-14T04:37:19.629Z,0.50
2019-04-14T04:39:50.190Z,0.40
2019-04-14T04:42:20.096Z,0.50
2019-04-14T04:44:50.975Z,0.50
2019-04-14T04:47:21.136Z,0.50
2019-04-14T04:49:51.303Z,0.60
2019-04-14T04:52:21.533Z,0.40
2019-04-14T04:54:51.707Z,0.30
2019-04-14T04:57:22.103Z,0.10
2019-04-14T04:59:52.131Z,0.20
2019-04-14T05:02:22.311Z,0.30
2019-04-14T05:04:52.672Z,0.40
2019-04-14T05:07:23.114Z,0.50
2019-04-14T05:10:27.088Z,0.80
2019-04-14T05:13:05.723Z,0.90
2019-04-14T05:15:48.899Z,1.10
2019-04-14T05:18:24.675Z,1.00
2019-04-14T05:20:55.362Z,0.80
2019-04-14T05:23:26.338Z,0.90
2019-04-14T05:25:56.414Z,0.90
2019-04-14T05:28:26.801Z,0.90
2019-04-14T05:30:57.133Z,0.90
2019-04-14T05:33:27.231Z,1.00
2019-04-14T05:35:57.478Z,1.00
2019-04-14T05:38:30.298Z,1.10
2019-04-14T05:41:00.338Z,1.20
2019-04-14T05:43:41.641Z,1.10
2019-04-14T05:46:03.402Z,1.20
2019-04-14T05:48:33.737Z,1.10
2019-04-14T05:51:04.176Z,0.90
2019-04-14T05:53:35.123Z,0.90
2019-04-14T05:56:05.797Z,1.00
2019-04-14T05:58:36.149Z,1.10
2019-04-14T06:01:06.937Z,1.10
2019-04-14T06:03:37.052Z,1.10
2019-04-14T06:06:07.072Z,1.10
2019-04-14T06:08:37.112Z,1.20
2019-04-14T06:11:07.135Z,1.20
2019-04-14T06:13:37.486Z,1.30
2019-04-14T06:16:07.631Z,1.50
2019-04-14T06:18:37.669Z,1.60
2019-04-14T06:21:07.645Z,1.70
2019-04-14T06:23:37.601Z,1.70
2019-04-14T06:26:07.553Z,1.90
2019-04-14T06:28:38.444Z,1.80
2019-04-14T06:31:25.758Z,1.80
2019-04-14T06:34:09.396Z,2.00
2019-04-14T06:36:48.373Z,2.10
2019-04-14T06:39:21.557Z,2.10
2019-04-14T06:41:51.556Z,2.10
2019-04-14T06:44:21.526Z,2.00
2019-04-14T06:46:51.503Z,1.90
2019-04-14T06:49:21.574Z,1.90
2019-04-14T06:51:51.893Z,2.00
2019-04-14T06:54:21.961Z,2.10
2019-04-14T06:56:51.964Z,2.20
2019-04-14T06:59:23.180Z,2.40
2019-04-14T07:01:53.457Z,2.40
2019-04-14T07:04:23.499Z,2.40
2019-04-14T07:06:53.492Z,2.50
2019-04-14T07:09:23.753Z,2.60
2019-04-14T07:11:53.749Z,2.80
2019-04-14T07:14:23.711Z,2.90
2019-04-14T07:16:54.336Z,3.20
2019-04-14T07:19:24.332Z,3.10
2019-04-14T07:21:54.359Z,3.00
2019-04-14T07:24:24.402Z,3.30
2019-04-14T07:26:54.389Z,3.20
2019-04-14T07:29:26.326Z,3.10
2019-04-14T07:32:13.797Z,3.30
2019-04-14T07:35:06.166Z,3.40
2019-04-14T07:37:43.697Z,3.70
2019-04-14T07:40:41.618Z,3.80
2019-04-14T07:43:17.255Z,3.90
2019-04-14T07:46:09.540Z,4.10
2019-04-14T07:48:53.867Z,4.40
2019-04-14T07:51:41.692Z,4.60
2019-04-14T07:54:20.800Z,4.90
2019-04-14T07:57:12.862Z,4.80
2019-04-14T08:00:02.955Z,4.60
2019-04-14T08:02:55.623Z,4.40
2019-04-14T08:05:29.508Z,4.50
2019-04-14T08:07:59.791Z,4.70
2019-04-14T08:10:30.309Z,4.80
2019-04-14T08:13:00.114Z,5.00
2019-04-14T08:15:30.386Z,5.20
2019-04-14T08:18:00.530Z,5.30
2019-04-14T08:20:30.519Z,5.40
2019-04-14T08:23:00.744Z,5.50
2019-04-14T08:25:31.008Z,5.50
2019-04-14T08:28:01.300Z,5.50
2019-04-14T08:30:31.720Z,5.80
2019-04-14T08:33:01.702Z,5.80
2019-04-14T08:35:31.664Z,6.00
2019-04-14T08:38:01.659Z,6.00
2019-04-14T08:40:31.635Z,6.10
2019-04-14T08:43:19.280Z,6.10
2019-04-14T08:45:59.839Z,6.30
2019-04-14T08:48:42.989Z,6.60
2019-04-14T08:51:26.846Z,6.70
2019-04-14T08:54:15.845Z,6.80
2019-04-14T08:57:04.853Z,7.10
2019-04-14T08:59:53.856Z,7.00
2019-04-14T09:02:41.755Z,7.10
2019-04-14T09:05:28.321Z,7.10
2019-04-14T09:08:09.914Z,7.20
2019-04-14T09:10:42.385Z,7.50
2019-04-14T09:13:12.363Z,7.60
2019-04-14T09:15:42.652Z,7.60
2019-04-14T09:18:12.548Z,7.60
2019-04-14T09:20:52.103Z,7.70
2019-04-14T09:23:14.228Z,8.10
2019-04-14T09:25:44.203Z,7.90
2019-04-14T09:28:14.158Z,8.20
2019-04-14T09:30:44.222Z,8.30
2019-04-14T09:33:15.154Z,8.50
2019-04-14T09:35:45.314Z,8.40
2019-04-14T09:38:15.220Z,8.30
2019-04-14T09:40:45.226Z,8.50
2019-04-14T09:43:15.528Z,8.50
2019-04-14T09:45:45.536Z,8.50
2019-04-14T09:48:15.688Z,8.90
2019-04-14T09:50:45.634Z,9.30
2019-04-14T09:53:15.615Z,9.80
2019-04-14T09:55:45.616Z,9.60
2019-04-14T09:58:15.585Z,9.50
2019-04-14T10:00:45.674Z,9.40
2019-04-14T10:03:15.639Z,9.50
2019-04-14T10:05:45.552Z,9.60
2019-04-14T10:08:15.609Z,9.40
2019-04-14T10:10:45.654Z,9.50
2019-04-14T10:13:15.718Z,9.60
2019-04-14T10:15:45.852Z,10.40
2019-04-14T10:18:15.764Z,10.20
2019-04-14T10:20:46.008Z,10.20
2019-04-14T10:23:16.063Z,10.00
2019-04-14T10:25:46.027Z,9.80
2019-04-14T10:28:16.164Z,9.20
2019-04-14T10:30:46.420Z,8.80
2019-04-14T10:33:16.399Z,8.50
2019-04-14T10:35:46.243Z,8.40
2019-04-14T10:38:16.130Z,8.50
2019-04-14T10:40:46.034Z,8.90
2019-04-14T10:43:16.974Z,8.90
2019-04-14T10:45:46.799Z,9.10
2019-04-14T10:48:16.761Z,8.50
2019-04-14T10:50:46.736Z,8.30
2019-04-14T10:53:16.630Z,8.10
2019-04-14T10:55:46.873Z,8.00
2019-04-14T10:58:17.113Z,8.10
2019-04-14T11:00:47.089Z,8.30
2019-04-14T11:03:17.111Z,8.50
2019-04-14T11:06:18.290Z,8.70
2019-04-14T11:08:48.377Z,8.70
2019-04-14T11:11:18.418Z,8.70
2019-04-14T11:13:48.399Z,8.40
2019-04-14T11:16:18.289Z,8.60
2019-04-14T11:18:49.351Z,8.60
2019-04-14T11:21:19.307Z,8.70
2019-04-14T11:23:49.281Z,8.60
2019-04-14T11:26:19.317Z,8.50
2019-04-14T11:28:49.464Z,8.40
2019-04-14T11:31:38.558Z,8.20
2019-04-14T11:34:09.238Z,8.10
2019-04-14T11:36:59.009Z,8.20
2019-04-14T11:39:29.402Z,8.30
2019-04-14T11:41:59.662Z,8.30
2019-04-14T11:44:29.646Z,8.40
2019-04-14T11:46:59.986Z,8.40
2019-04-14T11:49:29.856Z,8.50
2019-04-14T11:51:59.925Z,8.50
2019-04-14T11:54:29.825Z,8.60
2019-04-14T11:56:59.793Z,8.50
2019-04-14T11:59:43.683Z,8.40
2019-04-14T12:02:21.900Z,8.30
2019-04-14T12:04:59.312Z,8.20
2019-04-14T12:07:47.298Z,8.20
2019-04-14T12:10:20.254Z,8.20
2019-04-14T12:12:50.192Z,8.60
2019-04-14T12:15:20.146Z,8.80
2019-04-14T12:17:49.986Z,8.90
2019-04-14T12:20:19.942Z,8.80
2019-04-14T12:22:49.922Z,8.80
2019-04-14T12:25:19.884Z,8.60
2019-04-14T12:27:51.177Z,8.40
2019-04-14T12:30:22.408Z,8.30
2019-04-14T12:32:52.400Z,8.10
2019-04-14T12:35:22.516Z,8.30
2019-04-14T12:37:52.482Z,8.40
2019-04-14T12:40:22.467Z,8.50
2019-04-14T12:43:17.261Z,8.50
2019-04-14T12:46:10.403Z,8.50
2019-04-14T12:48:48.777Z,8.40
2019-04-14T12:51:22.386Z,8.40
2019-04-14T12:53:52.249Z,8.20
2019-04-14T12:56:25.278Z,8.30
2019-04-14T12:59:14.310Z,8.20
2019-04-14T13:02:11.105Z,8.10
2019-04-14T13:04:41.176Z,8.10
2019-04-14T13:07:11.482Z,8.00
2019-04-14T13:09:41.706Z,8.10
2019-04-14T13:12:11.651Z,8.00
2019-04-14T13:14:41.608Z,8.00
2019-04-14T13:17:11.574Z,8.00
2019-04-14T13:19:41.614Z,7.80
2019-04-14T13:22:11.589Z,7.70
2019-04-14T13:24:42.810Z,7.70
2019-04-14T13:27:12.872Z,7.70
2019-04-14T13:29:42.885Z,7.80
2019-04-14T13:32:13.014Z,7.70
2019-04-14T13:34:42.983Z,7.60
2019-04-14T13:37:13.001Z,7.80
2019-04-14T13:39:43.000Z,7.90
2019-04-14T13:42:12.972Z,8.00
2019-04-14T13:44:42.930Z,8.00
2019-04-14T13:47:12.898Z,7.90
2019-04-14T13:49:43.751Z,7.80
2019-04-14T13:52:13.973Z,7.70
2019-04-14T13:54:44.091Z,7.70
2019-04-14T13:57:14.338Z,7.60
2019-04-14T13:59:44.319Z,7.60
2019-04-14T14:02:14.294Z,7.60
2019-04-14T14:04:44.213Z,7.60
2019-04-14T14:07:14.113Z,7.60
2019-04-14T14:09:44.254Z,7.50
2019-04-14T14:12:32.584Z,7.60
2019-04-14T14:15:11.347Z,7.60
2019-04-14T14:17:49.361Z,7.50
2019-04-14T14:20:26.263Z,7.50
2019-04-14T14:23:12.823Z,7.60
2019-04-14T14:25:47.818Z,7.50
2019-04-14T14:28:17.762Z,7.50
2019-04-14T14:30:47.797Z,7.40
2019-04-14T14:33:17.690Z,7.30
2019-04-14T14:35:47.744Z,7.30
2019-04-14T14:38:17.748Z,7.30
2019-04-14T14:40:49.365Z,7.30
2019-04-14T14:43:19.432Z,7.20
2019-04-14T14:45:57.595Z,7.10
2019-04-14T14:48:41.730Z,7.10
2019-04-14T14:51:30.766Z,7.10
2019-04-14T14:54:00.988Z,7.20
2019-04-14T14:56:30.963Z,7.20
2019-04-14T14:59:00.879Z,7.10
2019-04-14T15:01:30.850Z,7.10
2019-04-14T15:04:00.909Z,7.30
2019-04-14T15:06:30.921Z,7.20
2019-04-14T15:09:02.077Z,7.00
2019-04-14T15:11:33.226Z,6.90
2019-04-14T15:14:03.235Z,6.70
2019-04-14T15:16:33.177Z,6.60
2019-04-14T15:19:03.341Z,6.50
2019-04-14T15:21:33.406Z,6.40
2019-04-14T15:24:04.426Z,6.40
2019-04-14T15:26:34.517Z,6.40
2019-04-14T15:29:04.578Z,6.40
2019-04-14T15:31:34.571Z,6.40
2019-04-14T15:34:04.539Z,6.30
2019-04-14T15:36:34.534Z,6.30
2019-04-14T15:39:06.976Z,6.30
2019-04-14T15:41:37.058Z,6.10
2019-04-14T15:44:07.454Z,6.20
2019-04-14T15:46:37.645Z,6.00
2019-04-14T15:49:08.301Z,5.90
2019-04-14T15:51:38.286Z,6.00
2019-04-14T15:54:08.355Z,6.00
2019-04-14T15:57:01.308Z,5.90
2019-04-14T15:59:46.807Z,6.00
2019-04-14T16:02:25.934Z,6.00
2019-04-14T16:05:03.401Z,5.90
2019-04-14T16:07:38.202Z,5.90
2019-04-14T16:10:30.755Z,5.90
2019-04-14T16:13:12.502Z,5.80
2019-04-14T16:17:00.153Z,5.80
2019-04-14T16:19:42.554Z,5.70
2019-04-14T16:22:12.530Z,5.70
2019-04-14T16:24:42.639Z,5.70
2019-04-14T16:27:36.345Z,5.60
2019-04-14T16:30:13.452Z,5.60
2019-04-14T16:33:01.387Z,5.70
2019-04-14T16:35:32.784Z,5.70
2019-04-14T16:38:02.755Z,5.80
2019-04-14T16:40:32.804Z,5.90
2019-04-14T16:43:02.761Z,5.90
2019-04-14T16:45:33.146Z,5.90
2019-04-14T16:48:03.027Z,5.90
2019-04-14T16:50:33.362Z,5.80
2019-04-14T16:53:37.593Z,5.80
2019-04-14T16:56:15.111Z,5.70
2019-04-14T16:58:48.430Z,5.80
2019-04-14T17:01:23.157Z,5.80
2019-04-14T17:03:53.149Z,5.80
2019-04-14T17:06:25.511Z,5.90
2019-04-14T17:08:55.494Z,5.90
2019-04-14T17:11:25.448Z,5.80
2019-04-14T17:14:01.177Z,5.90
2019-04-14T17:16:53.179Z,5.70
2019-04-14T17:19:45.042Z,5.70
2019-04-14T17:22:22.881Z,5.80
2019-04-14T17:25:10.445Z,5.70
2019-04-14T17:27:45.111Z,5.60
2019-04-14T17:30:30.294Z,5.60
2019-04-14T17:33:31.649Z,5.60
2019-04-14T17:36:10.757Z,5.50
2019-04-14T17:39:14.948Z,5.60
2019-04-14T17:41:53.698Z,5.60
2019-04-14T17:44:41.179Z,5.50
2019-04-14T17:47:30.544Z,5.40
2019-04-14T17:50:25.778Z,5.40
2019-04-14T17:53:08.311Z,5.40
2019-04-14T17:56:06.364Z,5.50
2019-04-14T17:58:55.228Z,5.50
2019-04-14T18:01:38.791Z,5.60
2019-04-14T18:04:29.597Z,5.50
2019-04-14T18:07:14.599Z,5.50
2019-04-14T18:10:03.197Z,5.50
2019-04-14T18:12:44.912Z,5.50
2019-04-14T18:15:46.801Z,5.40
2019-04-14T18:18:33.257Z,5.40
2019-04-14T18:21:06.370Z,5.40
2019-04-14T18:23:36.631Z,5.40
2019-04-14T18:26:08.450Z,5.40
2019-04-14T18:29:10.627Z,5.50
2019-04-14T18:31:46.535Z,5.40
2019-04-14T18:34:30.459Z,5.40
2019-04-14T18:37:11.009Z,5.40
2019-04-14T18:40:05.770Z,5.40
2019-04-14T18:42:46.985Z,5.40
2019-04-14T18:45:28.084Z,5.40
2019-04-14T18:48:17.092Z,5.40
2019-04-14T18:51:08.924Z,5.50
2019-04-14T18:53:52.870Z,5.40
2019-04-14T18:56:40.611Z,5.40
2019-04-14T18:59:28.394Z,5.40
2019-04-14T19:01:58.511Z,5.50
2019-04-14T19:04:28.458Z,5.50
2019-04-14T19:06:58.423Z,5.60
2019-04-14T19:09:28.613Z,5.50
2019-04-14T19:12:09.304Z,5.40
2019-04-14T19:14:40.097Z,5.50
2019-04-14T19:17:17.138Z,5.50
2019-04-14T19:20:00.833Z,5.50
2019-04-14T19:22:22.388Z,5.50
2019-04-14T19:24:52.375Z,5.70
2019-04-14T19:27:22.338Z,5.50
2019-04-14T19:29:52.239Z,5.50
2019-04-14T19:32:22.179Z,5.40
2019-04-14T19:34:52.702Z,5.40
2019-04-14T19:37:22.735Z,5.50
2019-04-14T19:39:52.975Z,5.50
2019-04-14T19:42:22.850Z,5.50
2019-04-14T19:44:53.817Z,5.50
2019-04-14T19:47:23.690Z,5.70
2019-04-14T19:49:53.665Z,5.60
2019-04-14T19:52:23.577Z,5.50
2019-04-14T19:54:53.949Z,5.50
2019-04-14T19:57:23.993Z,5.50
2019-04-14T19:59:53.968Z,5.60
2019-04-14T20:02:23.947Z,5.60
2019-04-14T20:04:54.237Z,5.60
2019-04-14T20:07:24.155Z,5.50
2019-04-14T20:09:54.040Z,5.60
2019-04-14T20:12:24.123Z,5.50
2019-04-14T20:14:54.165Z,5.50
2019-04-14T20:17:43.459Z,5.50
2019-04-14T20:20:50.468Z,5.40
2019-04-14T20:23:34.741Z,5.40
2019-04-14T20:26:28.056Z,5.40
2019-04-14T20:29:10.643Z,5.40
2019-04-14T20:31:50.611Z,5.40
2019-04-14T20:34:20.739Z,5.50
2019-04-14T20:36:50.788Z,5.40
2019-04-14T20:39:28.838Z,5.50
2019-04-14T20:41:58.736Z,5.40
2019-04-14T20:44:29.060Z,5.40
2019-04-14T20:46:59.048Z,5.50
2019-04-14T20:49:29.051Z,5.40
2019-04-14T20:51:59.315Z,5.60
2019-04-14T20:54:29.239Z,5.60
2019-04-14T20:56:59.159Z,5.70
2019-04-14T20:59:29.462Z,5.70
2019-04-14T21:02:17.385Z,5.80
2019-04-14T21:05:09.189Z,5.80
2019-04-14T21:07:48.056Z,5.90
2019-04-14T21:10:24.952Z,6.10
2019-04-14T21:13:23.264Z,6.00
2019-04-14T21:16:15.239Z,6.10
2019-04-14T21:18:50.936Z,6.00
2019-04-14T21:21:27.909Z,6.10
2019-04-14T21:24:19.729Z,6.10
2019-04-14T21:27:07.652Z,6.10
2019-04-14T21:30:02.534Z,6.20
2019-04-14T21:32:47.840Z,6.10
2019-04-14T21:35:30.901Z,6.00
2019-04-14T21:38:29.107Z,5.90
2019-04-14T21:41:03.379Z,6.10
2019-04-14T21:43:33.966Z,6.00
2019-04-14T21:46:04.023Z,6.00
2019-04-14T21:48:33.984Z,6.00
2019-04-14T21:51:03.999Z,6.10
2019-04-14T21:53:33.951Z,6.00
2019-04-14T21:56:13.415Z,5.80
2019-04-14T21:58:47.990Z,5.90
2019-04-14T22:01:55.576Z,5.80
2019-04-14T22:04:53.837Z,5.80
2019-04-14T22:07:31.281Z,5.80
2019-04-14T22:10:16.611Z,5.70
2019-04-14T22:12:47.748Z,5.80
2019-04-14T22:15:17.824Z,5.80
2019-04-14T22:17:47.629Z,5.80
2019-04-14T22:20:17.661Z,5.80
2019-04-14T22:22:47.646Z,5.70
2019-04-14T22:25:17.563Z,5.70
2019-04-14T22:27:47.623Z,5.60
2019-04-14T22:30:18.587Z,5.60
2019-04-14T22:32:48.537Z,5.60
2019-04-14T22:35:18.461Z,5.60
2019-04-14T22:37:48.360Z,5.60
2019-04-14T22:40:19.490Z,5.70
2019-04-14T22:42:49.494Z,5.60
2019-04-14T22:45:19.462Z,5.80
2019-04-14T22:47:49.434Z,5.90
2019-04-14T22:50:19.510Z,5.90
2019-04-14T22:52:49.475Z,5.80
2019-04-14T22:55:19.439Z,6.00
2019-04-14T22:57:49.646Z,6.00
2019-04-14T23:00:36.091Z,6.00
2019-04-14T23:03:16.378Z,6.10
2019-04-14T23:06:01.118Z,5.90
2019-04-14T23:08:41.850Z,6.00
2019-04-14T23:11:29.759Z,5.90
2019-04-14T23:14:24.171Z,5.90
2019-04-14T23:17:11.939Z,5.80
2019-04-14T23:19:52.883Z,5.80
2019-04-14T23:22:27.621Z,5.80
2019-04-14T23:24:57.816Z,5.80
2019-04-14T23:27:27.782Z,5.80
2019-04-14T23:29:57.794Z,5.80
2019-04-14T23:32:27.834Z,5.80
2019-04-14T23:34:57.726Z,5.70
2019-04-14T23:37:27.618Z,5.70
2019-04-14T23:39:57.931Z,5.70
2019-04-14T23:42:27.908Z,5.70
2019-04-14T23:44:57.989Z,5.70
2019-04-14T23:47:27.884Z,5.70
2019-04-14T23:49:57.869Z,5.80
2019-04-14T23:52:27.841Z,6.00
2019-04-14T23:54:57.878Z,6.00
2019-04-14T23:57:27.921Z,5.90
2019-04-14T23:59:57.881Z,6.00
